sensor_id;sensor_type;location;lat;lon;timestamp;pressure;altitude;pressure_sealevel;temperature;humidity
45253;BME280;63171;50.520;30.486;2023-01-31T00:00:06;98812.16;;;0.19;100.00
45253;BME280;63171;50.520;30.486;2023-01-31T00:00:56;98800.13;;;0.19;100.00
45253;BME280;63171;50.520;30.486;2023-01-31T00:01:53;98806.19;;;0.18;100.00
45253;BME280;63171;50.520;30.486;2023-01-31T00:02:43;98805.28;;;0.19;100.00
45253;BME280;63171;50.520;30.486;2023-01-31T00:03:34;98811.16;;;0.23;100.00
45253;BME280;63171;50.520;30.486;2023-01-31T00:04:24;98807.00;;;0.19;100.00
45253;BME280;63171;50.520;30.486;2023-01-31T00:05:16;98808.50;;;0.24;100.00
45253;BME280;63171;50.520;30.486;2023-01-31T00:06:13;98803.34;;;0.24;100.00
45253;BME280;63171;50.520;30.486;2023-01-31T00:07:04;98804.13;;;0.26;100.00
45253;BME280;63171;50.520;30.486;2023-01-31T00:07:54;98806.69;;;0.28;100.00
45253;BME280;63171;50.520;30.486;2023-01-31T00:08:46;98803.41;;;0.23;100.00
45253;BME280;63171;50.520;30.486;2023-01-31T00:09:36;98798.28;;;0.23;100.00
45253;BME280;63171;50.520;30.486;2023-01-31T00:10:26;98801.69;;;0.23;100.00
45253;BME280;63171;50.520;30.486;2023-01-31T00:11:18;98803.41;;;0.23;100.00
45253;BME280;63171;50.520;30.486;2023-01-31T00:12:09;98802.66;;;0.21;100.00
45253;BME280;63171;50.520;30.486;2023-01-31T00:12:59;98805.34;;;0.18;100.00
45253;BME280;63171;50.520;30.486;2023-01-31T00:13:49;98803.53;;;0.20;100.00
45253;BME280;63171;50.520;30.486;2023-01-31T00:14:40;98807.72;;;0.22;100.00
45253;BME280;63171;50.520;30.486;2023-01-31T00:15:30;98797.28;;;0.27;100.00
45253;BME280;63171;50.520;30.486;2023-01-31T00:16:22;98801.41;;;0.31;100.00
45253;BME280;63171;50.520;30.486;2023-01-31T00:17:11;98800.78;;;0.24;100.00
45253;BME280;63171;50.520;30.486;2023-01-31T00:18:02;98806.72;;;0.26;100.00
45253;BME280;63171;50.520;30.486;2023-01-31T00:18:52;98798.91;;;0.29;100.00
45253;BME280;63171;50.520;30.486;2023-01-31T00:19:43;98802.19;;;0.33;100.00
45253;BME280;63171;50.520;30.486;2023-01-31T00:20:34;98796.78;;;0.39;100.00
45253;BME280;63171;50.520;30.486;2023-01-31T00:21:26;98793.09;;;0.46;100.00
45253;BME280;63171;50.520;30.486;2023-01-31T00:22:16;98791.94;;;0.32;100.00
45253;BME280;63171;50.520;30.486;2023-01-31T00:23:07;98801.91;;;0.41;100.00
45253;BME280;63171;50.520;30.486;2023-01-31T00:23:57;98793.16;;;0.45;100.00
45253;BME280;63171;50.520;30.486;2023-01-31T00:24:48;98793.94;;;0.47;100.00
45253;BME280;63171;50.520;30.486;2023-01-31T00:25:38;98793.03;;;0.48;100.00
45253;BME280;63171;50.520;30.486;2023-01-31T00:26:30;98805.69;;;0.54;100.00
45253;BME280;63171;50.520;30.486;2023-01-31T00:27:20;98796.25;;;0.53;100.00
45253;BME280;63171;50.520;30.486;2023-01-31T00:28:11;98794.53;;;0.53;100.00
45253;BME280;63171;50.520;30.486;2023-01-31T00:29:02;98790.19;;;0.55;100.00
45253;BME280;63171;50.520;30.486;2023-01-31T00:29:53;98793.66;;;0.54;100.00
45253;BME280;63171;50.520;30.486;2023-01-31T00:30:43;98794.50;;;0.55;100.00
45253;BME280;63171;50.520;30.486;2023-01-31T00:31:33;98794.31;;;0.59;100.00
45253;BME280;63171;50.520;30.486;2023-01-31T00:32:24;98794.38;;;0.58;100.00
45253;BME280;63171;50.520;30.486;2023-01-31T00:33:15;98796.94;;;0.58;100.00
45253;BME280;63171;50.520;30.486;2023-01-31T00:34:05;98795.13;;;0.60;100.00
45253;BME280;63171;50.520;30.486;2023-01-31T00:34:55;98794.53;;;0.53;100.00
45253;BME280;63171;50.520;30.486;2023-01-31T00:35:47;98792.13;;;0.49;100.00
45253;BME280;63171;50.520;30.486;2023-01-31T00:36:38;98794.66;;;0.50;100.00
45253;BME280;63171;50.520;30.486;2023-01-31T00:37:28;98792.81;;;0.54;100.00
45253;BME280;63171;50.520;30.486;2023-01-31T00:38:19;98785.88;;;0.56;100.00
45253;BME280;63171;50.520;30.486;2023-01-31T00:39:09;98796.88;;;0.59;100.00
45253;BME280;63171;50.520;30.486;2023-01-31T00:40:00;98794.44;;;0.56;100.00
45253;BME280;63171;50.520;30.486;2023-01-31T00:40:51;98800.16;;;0.63;100.00
45253;BME280;63171;50.520;30.486;2023-01-31T00:41:42;98802.69;;;0.65;100.00
45253;BME280;63171;50.520;30.486;2023-01-31T00:42:34;98800.28;;;0.60;100.00
45253;BME280;63171;50.520;30.486;2023-01-31T00:43:26;98799.59;;;0.56;100.00
45253;BME280;63171;50.520;30.486;2023-01-31T00:44:15;98796.25;;;0.53;100.00
45253;BME280;63171;50.520;30.486;2023-01-31T00:45:07;98796.38;;;0.50;100.00
45253;BME280;63171;50.520;30.486;2023-01-31T00:45:57;98794.66;;;0.50;100.00
45253;BME280;63171;50.520;30.486;2023-01-31T00:46:48;98799.81;;;0.50;100.00
45253;BME280;63171;50.520;30.486;2023-01-31T00:47:38;98791.94;;;0.53;100.00
45253;BME280;63171;50.520;30.486;2023-01-31T00:48:29;98797.97;;;0.54;100.00
45253;BME280;63171;50.520;30.486;2023-01-31T00:49:18;98794.78;;;0.47;100.00
45253;BME280;63171;50.520;30.486;2023-01-31T00:50:13;98807.91;;;0.41;100.00
45253;BME280;63171;50.520;30.486;2023-01-31T00:51:05;98801.16;;;0.37;100.00
45253;BME280;63171;50.520;30.486;2023-01-31T00:51:56;98809.56;;;0.42;100.00
45253;BME280;63171;50.520;30.486;2023-01-31T00:52:46;98798.19;;;0.48;100.00
45253;BME280;63171;50.520;30.486;2023-01-31T00:53:37;98799.72;;;0.52;100.00
45253;BME280;63171;50.520;30.486;2023-01-31T00:54:26;98792.06;;;0.50;100.00
45253;BME280;63171;50.520;30.486;2023-01-31T00:55:17;98803.28;;;0.49;100.00
45253;BME280;63171;50.520;30.486;2023-01-31T00:56:09;98800.56;;;0.52;100.00
45253;BME280;63171;50.520;30.486;2023-01-31T00:57:00;98797.16;;;0.52;100.00
45253;BME280;63171;50.520;30.486;2023-01-31T00:57:49;98801.53;;;0.50;100.00
45253;BME280;63171;50.520;30.486;2023-01-31T00:58:40;98799.94;;;0.47;100.00
45253;BME280;63171;50.520;30.486;2023-01-31T00:59:30;98805.78;;;0.51;100.00
45253;BME280;63171;50.520;30.486;2023-01-31T01:02:26;98802.50;;;0.47;100.00
45253;BME280;63171;50.520;30.486;2023-01-31T01:03:17;98813.63;;;0.48;100.00
45253;BME280;63171;50.520;30.486;2023-01-31T01:04:07;98799.97;;;0.46;100.00
45253;BME280;63171;50.520;30.486;2023-01-31T01:04:57;98802.75;;;0.41;100.00
45253;BME280;63171;50.520;30.486;2023-01-31T01:05:47;98794.78;;;0.47;100.00
45253;BME280;63171;50.520;30.486;2023-01-31T01:06:39;98795.63;;;0.48;100.00
45253;BME280;63171;50.520;30.486;2023-01-31T01:07:29;98792.13;;;0.49;100.00
45253;BME280;63171;50.520;30.486;2023-01-31T01:08:22;98793.75;;;0.51;100.00
45253;BME280;63171;50.520;30.486;2023-01-31T01:09:12;98796.25;;;0.53;100.00
45253;BME280;63171;50.520;30.486;2023-01-31T01:10:02;98792.00;;;0.52;100.00
45253;BME280;63171;50.520;30.486;2023-01-31T01:10:52;98792.06;;;0.50;100.00
45253;BME280;63171;50.520;30.486;2023-01-31T01:11:43;98792.13;;;0.49;100.00
45253;BME280;63171;50.520;30.486;2023-01-31T01:12:32;98782.84;;;0.45;100.00
45253;BME280;63171;50.520;30.486;2023-01-31T01:13:23;98792.84;;;0.31;100.00
45253;BME280;63171;50.520;30.486;2023-01-31T05:02:50;98875.56;;;0.21;100.00
45253;BME280;63171;50.520;30.486;2023-01-31T05:03:41;98873.84;;;0.22;100.00
45253;BME280;63171;50.520;30.486;2023-01-31T05:04:30;98888.69;;;0.15;100.00
45253;BME280;63171;50.520;30.486;2023-01-31T05:05:21;98883.97;;;0.26;100.00
45253;BME280;63171;50.520;30.486;2023-01-31T05:06:11;98885.56;;;0.31;100.00
45253;BME280;63171;50.520;30.486;2023-01-31T05:07:02;98882.69;;;0.38;100.00
45253;BME280;63171;50.520;30.486;2023-01-31T05:07:52;98881.78;;;0.39;100.00
45253;BME280;63171;50.520;30.486;2023-01-31T05:08:42;98873.22;;;0.39;100.00
45253;BME280;63171;50.520;30.486;2023-01-31T05:09:32;98883.44;;;0.42;100.00
45253;BME280;63171;50.520;30.486;2023-01-31T05:10:22;98885.09;;;0.43;100.00
45253;BME280;63171;50.520;30.486;2023-01-31T05:11:12;98890.91;;;0.48;100.00
45253;BME280;63171;50.520;30.486;2023-01-31T05:12:03;98884.75;;;0.52;100.00
45253;BME280;63171;50.520;30.486;2023-01-31T05:12:53;98883.00;;;0.52;100.00
45253;BME280;63171;50.520;30.486;2023-01-31T05:13:44;98890.78;;;0.51;100.00
45253;BME280;63171;50.520;30.486;2023-01-31T05:14:34;98890.69;;;0.54;100.00
45253;BME280;63171;50.520;30.486;2023-01-31T05:15:25;98889.81;;;0.55;100.00
45253;BME280;63171;50.520;30.486;2023-01-31T05:16:14;98888.16;;;0.52;100.00
45253;BME280;63171;50.520;30.486;2023-01-31T05:17:05;98883.44;;;0.64;100.00
45253;BME280;63171;50.520;30.486;2023-01-31T05:17:56;98890.19;;;0.68;100.00
45253;BME280;63171;50.520;30.486;2023-01-31T05:18:51;98893.47;;;0.71;100.00
45253;BME280;63171;50.520;30.486;2023-01-31T05:19:40;98892.66;;;0.71;100.00
45253;BME280;63171;50.520;30.486;2023-01-31T05:20:34;98897.72;;;0.72;100.00
45253;BME280;63171;50.520;30.486;2023-01-31T05:21:25;98897.72;;;0.72;100.00
45253;BME280;63171;50.520;30.486;2023-01-31T05:22:15;98901.16;;;0.73;100.00
45253;BME280;63171;50.520;30.486;2023-01-31T05:23:06;98895.88;;;0.76;100.00
45253;BME280;63171;50.520;30.486;2023-01-31T05:23:57;98900.00;;;0.80;100.00
45253;BME280;63171;50.520;30.486;2023-01-31T05:24:47;98905.97;;;0.82;100.00
45253;BME280;63171;50.520;30.486;2023-01-31T05:25:38;98907.47;;;0.87;100.00
45253;BME280;63171;50.520;30.486;2023-01-31T05:26:28;98910.03;;;0.87;100.00
45253;BME280;63171;50.520;30.486;2023-01-31T05:27:19;98906.50;;;0.90;100.00
45253;BME280;63171;50.520;30.486;2023-01-31T05:28:09;98903.06;;;0.89;100.00
45253;BME280;63171;50.520;30.486;2023-01-31T05:29:01;98905.59;;;0.91;100.00
45253;BME280;63171;50.520;30.486;2023-01-31T05:29:51;98901.88;;;0.76;100.00
45253;BME280;63171;50.520;30.486;2023-01-31T05:30:42;98907.59;;;0.61;100.00
45253;BME280;63171;50.520;30.486;2023-01-31T05:31:32;98909.06;;;0.68;100.00
45253;BME280;63171;50.520;30.486;2023-01-31T05:32:22;98910.63;;;0.49;100.00
45253;BME280;63171;50.520;30.486;2023-01-31T05:33:13;98908.44;;;0.62;100.00
45253;BME280;63171;50.520;30.486;2023-01-31T05:34:04;98906.63;;;0.64;100.00
45253;BME280;63171;50.520;30.486;2023-01-31T05:34:54;98912.88;;;0.58;100.00
45253;BME280;63171;50.520;30.486;2023-01-31T05:35:45;98911.72;;;0.65;100.00
45253;BME280;63171;50.520;30.486;2023-01-31T05:36:35;98916.44;;;0.77;100.00
45253;BME280;63171;50.520;30.486;2023-01-31T05:37:25;98919.25;;;0.71;100.00
45253;BME280;63171;50.520;30.486;2023-01-31T05:38:15;98920.47;;;0.84;100.00
45253;BME280;63171;50.520;30.486;2023-01-31T05:39:06;98921.75;;;0.96;100.00
45253;BME280;63171;50.520;30.486;2023-01-31T05:39:56;98918.38;;;0.94;100.00
45253;BME280;63171;50.520;30.486;2023-01-31T05:40:48;98921.91;;;0.92;100.00
45253;BME280;63171;50.520;30.486;2023-01-31T05:41:38;98922.34;;;1.03;100.00
45253;BME280;63171;50.520;30.486;2023-01-31T05:42:29;98921.22;;;1.10;100.00
45253;BME280;63171;50.520;30.486;2023-01-31T05:43:18;98929.94;;;1.06;100.00
45253;BME280;63171;50.520;30.486;2023-01-31T05:44:09;98926.22;;;0.91;100.00
45253;BME280;63171;50.520;30.486;2023-01-31T05:44:59;98922.84;;;0.89;100.00
45253;BME280;63171;50.520;30.486;2023-01-31T05:45:48;98927.25;;;1.09;100.00
45253;BME280;63171;50.520;30.486;2023-01-31T05:46:39;98916.56;;;1.18;100.00
45253;BME280;63171;50.520;30.486;2023-01-31T05:47:29;98913.78;;;1.24;100.00
45253;BME280;63171;50.520;30.486;2023-01-31T05:48:21;98923.00;;;1.08;100.00
45253;BME280;63171;50.520;30.486;2023-01-31T05:49:12;98930.31;;;1.18;100.00
45253;BME280;63171;50.520;30.486;2023-01-31T05:50:03;98921.38;;;1.27;100.00
45253;BME280;63171;50.520;30.486;2023-01-31T05:50:53;98925.63;;;1.28;100.00
45253;BME280;63171;50.520;30.486;2023-01-31T05:51:43;98922.22;;;1.28;100.00
45253;BME280;63171;50.520;30.486;2023-01-31T05:52:33;98925.59;;;1.08;100.00
45253;BME280;63171;50.520;30.486;2023-01-31T05:53:24;98934.25;;;1.05;100.00
45253;BME280;63171;50.520;30.486;2023-01-31T05:54:13;98929.91;;;1.07;100.00
45253;BME280;63171;50.520;30.486;2023-01-31T05:55:05;98935.06;;;1.07;100.00
45253;BME280;63171;50.520;30.486;2023-01-31T05:55:55;98934.56;;;0.98;100.00
45253;BME280;63171;50.520;30.486;2023-01-31T05:56:45;98940.38;;;1.03;100.00
45253;BME280;63171;50.520;30.486;2023-01-31T05:57:35;98928.31;;;1.03;100.00
45253;BME280;63171;50.520;30.486;2023-01-31T05:58:26;98935.88;;;0.86;100.00
45253;BME280;63171;50.520;30.486;2023-01-31T05:59:16;98933.00;;;0.94;100.00
45253;BME280;63171;50.520;30.486;2023-01-31T06:00:07;98933.84;;;0.94;100.00
45253;BME280;63171;50.520;30.486;2023-01-31T06:01:01;98933.00;;;0.94;100.00
45253;BME280;63171;50.520;30.486;2023-01-31T06:01:51;98935.91;;;1.08;100.00
45253;BME280;63171;50.520;30.486;2023-01-31T06:02:43;98942.50;;;1.15;100.00
45253;BME280;63171;50.520;30.486;2023-01-31T06:03:35;98941.44;;;1.21;100.00
45253;BME280;63171;50.520;30.486;2023-01-31T06:04:24;98937.09;;;1.21;100.00
45253;BME280;63171;50.520;30.486;2023-01-31T06:05:15;98937.94;;;1.22;100.00
45253;BME280;63171;50.520;30.486;2023-01-31T06:06:05;98927.56;;;1.23;100.00
45253;BME280;63171;50.520;30.486;2023-01-31T06:06:56;98935.19;;;1.26;100.00
45253;BME280;63171;50.520;30.486;2023-01-31T06:07:45;98936.09;;;1.25;100.00
45253;BME280;63171;50.520;30.486;2023-01-31T06:08:36;98932.47;;;1.29;100.00
45253;BME280;63171;50.520;30.486;2023-01-31T06:09:26;98942.84;;;1.28;100.00
45253;BME280;63171;50.520;30.486;2023-01-31T06:10:17;98939.31;;;1.30;100.00
45253;BME280;63171;50.520;30.486;2023-01-31T06:11:08;98938.34;;;1.33;100.00
45253;BME280;63171;50.520;30.486;2023-01-31T06:11:59;98949.56;;;1.32;100.00
45253;BME280;63171;50.520;30.486;2023-01-31T06:12:49;98946.13;;;1.31;100.00
45253;BME280;63171;50.520;30.486;2023-01-31T06:13:41;98935.66;;;1.36;100.00
45253;BME280;63171;50.520;30.486;2023-01-31T06:14:31;98947.88;;;1.31;100.00
45253;BME280;63171;50.520;30.486;2023-01-31T06:15:22;98940.28;;;1.28;100.00
45253;BME280;63171;50.520;30.486;2023-01-31T06:16:12;98942.56;;;1.35;100.00
45253;BME280;63171;50.520;30.486;2023-01-31T06:17:03;98945.06;;;1.37;100.00
45253;BME280;63171;50.520;30.486;2023-01-31T06:17:53;98945.97;;;1.36;100.00
45253;BME280;63171;50.520;30.486;2023-01-31T06:18:45;98943.50;;;1.33;100.00
45253;BME280;63171;50.520;30.486;2023-01-31T06:19:35;98949.41;;;1.36;100.00
45253;BME280;63171;50.520;30.486;2023-01-31T06:20:26;98942.84;;;1.28;100.00
45253;BME280;63171;50.520;30.486;2023-01-31T06:21:16;98952.97;;;1.32;100.00
45253;BME280;63171;50.520;30.486;2023-01-31T06:22:08;98946.03;;;1.34;100.00
45253;BME280;63171;50.520;30.486;2023-01-31T06:22:58;98951.13;;;1.36;100.00
45253;BME280;63171;50.520;30.486;2023-01-31T06:23:49;98952.03;;;1.35;100.00
45253;BME280;63171;50.520;30.486;2023-01-31T06:24:39;98953.78;;;1.34;100.00
45253;BME280;63171;50.520;30.486;2023-01-31T06:25:30;98944.41;;;1.32;100.00
45253;BME280;63171;50.520;30.486;2023-01-31T06:26:20;98951.38;;;1.30;100.00
45253;BME280;63171;50.520;30.486;2023-01-31T06:27:10;98952.69;;;1.18;100.00
45253;BME280;63171;50.520;30.486;2023-01-31T06:28:00;98957.50;;;1.27;100.00
45253;BME280;63171;50.520;30.486;2023-01-31T06:28:51;98956.38;;;1.34;100.00
45253;BME280;63171;50.520;30.486;2023-01-31T06:29:41;98950.38;;;1.34;100.00
45253;BME280;63171;50.520;30.486;2023-01-31T06:30:32;98956.41;;;1.33;100.00
45253;BME280;63171;50.520;30.486;2023-01-31T06:31:21;98959.78;;;1.35;100.00
45253;BME280;63171;50.520;30.486;2023-01-31T06:32:12;98950.22;;;1.37;100.00
45253;BME280;63171;50.520;30.486;2023-01-31T06:33:01;98951.78;;;1.41;100.00
45253;BME280;63171;50.520;30.486;2023-01-31T06:33:54;98944.03;;;1.41;100.00
45253;BME280;63171;50.520;30.486;2023-01-31T06:34:44;98943.06;;;1.43;100.00
45253;BME280;63171;50.520;30.486;2023-01-31T06:35:35;98944.81;;;1.43;100.00
45253;BME280;63171;50.520;30.486;2023-01-31T06:36:25;98949.19;;;1.41;100.00
45253;BME280;63171;50.520;30.486;2023-01-31T06:37:16;98957.22;;;1.33;100.00
45253;BME280;63171;50.520;30.486;2023-01-31T06:38:06;98955.97;;;1.43;100.00
45253;BME280;63171;50.520;30.486;2023-01-31T06:38:57;98949.84;;;1.46;100.00
45253;BME280;63171;50.520;30.486;2023-01-31T06:39:47;98948.84;;;1.50;100.00
45253;BME280;63171;50.520;30.486;2023-01-31T06:40:37;98950.66;;;1.48;100.00
45253;BME280;63171;50.520;30.486;2023-01-31T06:41:27;98954.06;;;1.48;100.00
45253;BME280;63171;50.520;30.486;2023-01-31T06:42:18;98954.06;;;1.48;100.00
45253;BME280;63171;50.520;30.486;2023-01-31T06:43:07;98953.16;;;1.50;100.00
45253;BME280;63171;50.520;30.486;2023-01-31T06:43:58;98954.91;;;1.49;100.00
45253;BME280;63171;50.520;30.486;2023-01-31T06:44:47;98958.97;;;1.55;100.00
45253;BME280;63171;50.520;30.486;2023-01-31T06:45:41;98956.66;;;1.48;100.00
45253;BME280;63171;50.520;30.486;2023-01-31T06:46:31;98958.06;;;1.56;100.00
45253;BME280;63171;50.520;30.486;2023-01-31T06:47:22;98958.91;;;1.56;100.00
45253;BME280;63171;50.520;30.486;2023-01-31T06:48:12;98956.41;;;1.55;100.00
45253;BME280;63171;50.520;30.486;2023-01-31T06:49:04;98959.88;;;1.54;100.00
45253;BME280;63171;50.520;30.486;2023-01-31T06:49:54;98958.91;;;1.56;100.00
45253;BME280;63171;50.520;30.486;2023-01-31T06:51:12;98971.09;;;1.53;100.00
45253;BME280;63171;50.520;30.486;2023-01-31T06:52:01;98973.97;;;1.45;100.00
45253;BME280;63171;50.520;30.486;2023-01-31T06:52:52;98969.50;;;1.50;100.00
45253;BME280;63171;50.520;30.486;2023-01-31T06:53:42;98967.06;;;1.45;100.00
45253;BME280;63171;50.520;30.486;2023-01-31T06:54:33;98975.56;;;1.49;100.00
45253;BME280;63171;50.520;30.486;2023-01-31T06:55:22;98968.66;;;1.50;100.00
45253;BME280;63171;50.520;30.486;2023-01-31T06:56:16;98967.63;;;1.54;100.00
45253;BME280;63171;50.520;30.486;2023-01-31T06:57:06;98967.63;;;1.54;100.00
45253;BME280;63171;50.520;30.486;2023-01-31T06:57:57;98971.09;;;1.53;100.00
45253;BME280;63171;50.520;30.486;2023-01-31T06:58:47;98967.44;;;1.58;100.00
45253;BME280;63171;50.520;30.486;2023-01-31T06:59:38;98968.19;;;1.60;100.00
45253;BME280;63171;50.520;30.486;2023-01-31T07:00:27;98968.19;;;1.60;100.00
45253;BME280;63171;50.520;30.486;2023-01-31T07:01:18;98976.47;;;1.68;100.00
45253;BME280;63171;50.520;30.486;2023-01-31T07:02:10;98976.28;;;1.73;100.00
45253;BME280;63171;50.520;30.486;2023-01-31T07:03:01;98973.53;;;1.77;100.00
45253;BME280;63171;50.520;30.486;2023-01-31T07:03:51;98980.88;;;1.87;100.00
45253;BME280;63171;50.520;30.486;2023-01-31T07:04:43;98978.28;;;1.88;100.00
45253;BME280;63171;50.520;30.486;2023-01-31T07:05:33;98985.22;;;1.86;100.00
45253;BME280;63171;50.520;30.486;2023-01-31T07:06:23;98978.19;;;1.90;100.00
45253;BME280;63171;50.520;30.486;2023-01-31T07:07:14;98983.16;;;1.94;100.00
45253;BME280;63171;50.520;30.486;2023-01-31T07:08:04;98982.97;;;1.99;100.00
45253;BME280;63171;50.520;30.486;2023-01-31T07:08:54;98981.50;;;1.93;100.00
45253;BME280;63171;50.520;30.486;2023-01-31T07:09:44;98980.66;;;1.93;100.00
45253;BME280;63171;50.520;30.486;2023-01-31T07:10:34;98980.78;;;1.90;100.00
45253;BME280;63171;50.520;30.486;2023-01-31T07:11:25;98976.63;;;1.65;100.00
45253;BME280;63171;50.520;30.486;2023-01-31T07:12:14;98986.22;;;1.62;100.00
45253;BME280;63171;50.520;30.486;2023-01-31T07:13:05;98978.00;;;1.74;100.00
45253;BME280;63171;50.520;30.486;2023-01-31T07:13:55;98988.91;;;1.81;100.00
45253;BME280;63171;50.520;30.486;2023-01-31T07:14:46;98989.44;;;1.89;100.00
45253;BME280;63171;50.520;30.486;2023-01-31T07:15:36;98984.28;;;1.89;100.00
45253;BME280;63171;50.520;30.486;2023-01-31T07:16:26;98989.59;;;1.84;100.00
45253;BME280;63171;50.520;30.486;2023-01-31T07:17:16;98992.78;;;1.91;100.00
45253;BME280;63171;50.520;30.486;2023-01-31T07:18:09;98993.69;;;1.90;100.00
45253;BME280;63171;50.520;30.486;2023-01-31T07:19:00;98995.31;;;1.92;100.00
45253;BME280;63171;50.520;30.486;2023-01-31T07:19:52;98992.84;;;1.89;100.00
45253;BME280;63171;50.520;30.486;2023-01-31T07:20:42;98997.47;;;1.81;100.00
45253;BME280;63171;50.520;30.486;2023-01-31T07:21:33;98988.75;;;1.84;100.00
45253;BME280;63171;50.520;30.486;2023-01-31T07:22:25;98996.38;;;1.87;100.00
45253;BME280;63171;50.520;30.486;2023-01-31T07:23:15;99000.47;;;1.92;100.00
45253;BME280;63171;50.520;30.486;2023-01-31T07:24:07;98994.41;;;1.93;100.00
45253;BME280;63171;50.520;30.486;2023-01-31T07:24:58;98994.53;;;1.90;100.00
45253;BME280;63171;50.520;30.486;2023-01-31T07:25:47;98997.19;;;1.89;100.00
45253;BME280;63171;50.520;30.486;2023-01-31T07:26:38;98995.59;;;1.85;100.00
45253;BME280;63171;50.520;30.486;2023-01-31T07:27:28;98998.25;;;1.83;100.00
45253;BME280;63171;50.520;30.486;2023-01-31T07:28:19;98995.03;;;1.78;100.00
45253;BME280;63171;50.520;30.486;2023-01-31T07:29:09;98991.47;;;1.81;100.00
45253;BME280;63171;50.520;30.486;2023-01-31T07:30:00;98987.03;;;1.84;100.00
45253;BME280;63171;50.520;30.486;2023-01-31T07:30:50;98991.28;;;1.85;100.00
45253;BME280;63171;50.520;30.486;2023-01-31T07:31:41;98995.44;;;1.89;100.00
45253;BME280;63171;50.520;30.486;2023-01-31T07:32:30;98991.81;;;1.93;100.00
45253;BME280;63171;50.520;30.486;2023-01-31T07:33:21;98985.88;;;1.91;100.00
45253;BME280;63171;50.520;30.486;2023-01-31T07:34:12;98990.91;;;1.94;100.00
45253;BME280;63171;50.520;30.486;2023-01-31T07:35:03;98995.16;;;1.95;100.00
45253;BME280;63171;50.520;30.486;2023-01-31T07:35:54;98997.75;;;1.95;100.00
45253;BME280;63171;50.520;30.486;2023-01-31T07:36:44;98988.41;;;1.93;100.00
45253;BME280;63171;50.520;30.486;2023-01-31T07:37:35;98996.34;;;1.88;100.00
45253;BME280;63171;50.520;30.486;2023-01-31T07:38:25;98992.03;;;1.89;100.00
45253;BME280;63171;50.520;30.486;2023-01-31T07:39:15;98987.69;;;1.89;100.00
45253;BME280;63171;50.520;30.486;2023-01-31T07:40:07;98998.78;;;1.91;100.00
45253;BME280;63171;50.520;30.486;2023-01-31T07:40:58;98998.84;;;1.90;100.00
45253;BME280;63171;50.520;30.486;2023-01-31T07:41:49;98998.66;;;1.94;100.00
45253;BME280;63171;50.520;30.486;2023-01-31T07:42:40;99003.97;;;1.91;100.00
45253;BME280;63171;50.520;30.486;2023-01-31T07:43:31;98999.75;;;1.89;100.00
45253;BME280;63171;50.520;30.486;2023-01-31T07:44:22;99000.34;;;1.95;100.00
45253;BME280;63171;50.520;30.486;2023-01-31T07:45:14;99004.59;;;1.96;100.00
45253;BME280;63171;50.520;30.486;2023-01-31T07:46:06;99004.44;;;2.01;100.00
45253;BME280;63171;50.520;30.486;2023-01-31T07:46:57;99012.19;;;2.01;100.00
45253;BME280;63171;50.520;30.486;2023-01-31T07:47:48;99001.00;;;2.00;100.00
45253;BME280;63171;50.520;30.486;2023-01-31T07:48:38;99008.69;;;2.02;100.00
45253;BME280;63171;50.520;30.486;2023-01-31T07:49:28;99001.84;;;2.01;100.00
45253;BME280;63171;50.520;30.486;2023-01-31T07:50:19;99014.69;;;2.02;100.00
45253;BME280;63171;50.520;30.486;2023-01-31T07:51:10;99010.47;;;2.00;100.00
45253;BME280;63171;50.520;30.486;2023-01-31T07:52:00;99009.63;;;1.99;100.00
45253;BME280;63171;50.520;30.486;2023-01-31T07:52:51;99012.28;;;1.98;100.00
45253;BME280;63171;50.520;30.486;2023-01-31T07:53:40;99013.31;;;1.94;100.00
45253;BME280;63171;50.520;30.486;2023-01-31T07:54:32;99018.34;;;1.97;100.00
45253;BME280;63171;50.520;30.486;2023-01-31T07:55:22;99011.34;;;2.00;100.00
45253;BME280;63171;50.520;30.486;2023-01-31T07:56:14;99007.00;;;2.01;100.00
45253;BME280;63171;50.520;30.486;2023-01-31T07:57:04;99007.78;;;2.03;100.00
45253;BME280;63171;50.520;30.486;2023-01-31T07:57:55;99008.50;;;2.06;100.00
45253;BME280;63171;50.520;30.486;2023-01-31T07:58:46;99002.34;;;2.09;100.00
45253;BME280;63171;50.520;30.486;2023-01-31T07:59:37;99005.69;;;2.11;100.00
45253;BME280;63171;50.520;30.486;2023-01-31T08:00:26;99001.28;;;2.15;100.00
45253;BME280;63171;50.520;30.486;2023-01-31T08:01:34;99011.00;;;2.08;100.00
45253;BME280;63171;50.520;30.486;2023-01-31T08:02:43;99008.34;;;2.10;100.00
45253;BME280;63171;50.520;30.486;2023-01-31T08:04:02;99015.97;;;2.13;100.00
45253;BME280;63171;50.520;30.486;2023-01-31T08:04:53;99012.25;;;2.20;100.00
45253;BME280;63171;50.520;30.486;2023-01-31T08:05:46;99011.19;;;2.24;100.00
45253;BME280;63171;50.520;30.486;2023-01-31T08:06:37;99010.50;;;2.20;100.00
45253;BME280;63171;50.520;30.486;2023-01-31T08:07:28;99016.44;;;2.22;100.00
45253;BME280;63171;50.520;30.486;2023-01-31T08:08:19;99006.75;;;2.27;100.00
45253;BME280;63171;50.520;30.486;2023-01-31T08:09:08;99009.34;;;2.27;100.00
45253;BME280;63171;50.520;30.486;2023-01-31T08:09:59;99012.69;;;2.29;100.00
45253;BME280;63171;50.520;30.486;2023-01-31T08:10:49;99015.97;;;2.33;100.00
45253;BME280;63171;50.520;30.486;2023-01-31T08:11:39;99016.97;;;2.30;100.00
45253;BME280;63171;50.520;30.486;2023-01-31T08:12:28;99017.72;;;2.32;100.00
45253;BME280;63171;50.520;30.486;2023-01-31T08:13:19;99014.25;;;2.33;100.00
45253;BME280;63171;50.520;30.486;2023-01-31T08:14:10;99022.00;;;2.33;100.00
45253;BME280;63171;50.520;30.486;2023-01-31T08:15:01;99019.34;;;2.35;100.00
45253;BME280;63171;50.520;30.486;2023-01-31T08:15:51;99026.19;;;2.36;100.00
45253;BME280;63171;50.520;30.486;2023-01-31T08:16:41;99030.44;;;2.37;100.00